Time;durP1;ratioP1;P1;durP2;ratioP2;P2;SDS_P1;SDS_P2;PMS_P1;PMS_P2;Temp;Humidity;BMP_temperature;BMP_pressure;BME280_temperature;BME280_humidity;BME280_pressure;Samples;Min_cycle;Max_cycle;Signal;HPM_P1;HPM_P2
2023/02/15 00:00:15;;;;;;;137.40;72.80;;;;;;;1.79;79.24;98777.94;109015;1253;107347;-75
2023/02/15 00:03:03;;;;;;;144.80;73.80;;;;;;;1.75;79.36;98775.27;108708;1250;95932;-74
2023/02/15 00:05:32;;;;;;;141.10;76.40;;;;;;;1.73;79.42;98774.83;109021;1251;96042;-74
2023/02/15 00:08:00;;;;;;;154.90;84.00;;;;;;;1.72;79.29;98769.60;109038;1250;103048;-74
2023/02/15 00:10:29;;;;;;;169.90;87.00;;;;;;;1.71;79.29;98768.96;108732;1251;101310;-78
2023/02/15 00:12:57;;;;;;;152.30;84.00;;;;;;;1.70;79.42;98766.23;109010;1249;100069;-78
2023/02/15 00:15:25;;;;;;;150.90;84.80;;;;;;;1.67;79.49;98762.22;109000;1251;95546;-74
2023/02/15 00:17:53;;;;;;;157.40;85.40;;;;;;;1.68;79.48;98757.04;109037;1251;96044;-74
2023/02/15 00:20:22;;;;;;;161.30;85.00;;;;;;;1.68;79.40;98753.63;109004;1250;103061;-74
2023/02/15 00:22:50;;;;;;;150.30;81.90;;;;;;;1.68;79.46;98754.55;109030;1251;101791;-74
2023/02/15 00:25:19;;;;;;;148.00;78.60;;;;;;;1.68;79.64;98757.23;108978;1250;99972;-74
2023/02/15 00:27:47;;;;;;;132.30;70.70;;;;;;;1.66;79.46;98754.66;108438;1251;96549;-75
2023/02/15 00:30:15;;;;;;;125.80;67.60;;;;;;;1.64;79.61;98755.41;109005;1251;96048;-74
2023/02/15 00:32:43;;;;;;;132.00;69.50;;;;;;;1.64;79.65;98763.56;109006;1251;103874;-74
2023/02/15 00:35:12;;;;;;;133.10;71.40;;;;;;;1.65;79.58;98764.31;109006;1249;101335;-75
2023/02/15 00:37:40;;;;;;;151.50;76.70;;;;;;;1.66;79.54;98764.66;108983;1251;99862;-78
2023/02/15 00:40:08;;;;;;;141.90;74.40;;;;;;;1.65;79.56;98763.70;108636;1251;95971;-74
2023/02/15 00:42:36;;;;;;;142.40;75.50;;;;;;;1.64;79.62;98759.30;108969;1250;96061;-76
2023/02/15 00:45:05;;;;;;;135.90;73.60;;;;;;;1.61;79.77;98754.73;109009;1251;103505;-76
2023/02/15 00:47:33;;;;;;;135.10;74.60;;;;;;;1.60;79.67;98754.27;108646;1250;101302;-78
2023/02/15 00:50:02;;;;;;;134.20;74.30;;;;;;;1.61;79.70;98749.62;108947;1251;100078;-74
2023/02/15 00:52:31;;;;;;;138.40;74.50;;;;;;;1.61;79.76;98750.45;108984;1249;95612;-73
2023/02/15 00:54:59;;;;;;;139.50;75.90;;;;;;;1.61;79.75;98750.08;108716;1251;96311;-74
2023/02/15 00:57:27;;;;;;;137.70;72.80;;;;;;;1.61;79.82;98744.64;108968;1251;103512;-77
2023/02/15 00:59:55;;;;;;;133.60;73.90;;;;;;;1.61;79.95;98745.66;109008;1251;101452;-74
2023/02/15 01:02:23;;;;;;;134.50;72.10;;;;;;;1.62;79.79;98742.56;108922;1249;98783;-78
2023/02/15 01:04:52;;;;;;;134.40;70.20;;;;;;;1.62;79.85;98738.16;108984;1251;95575;-75
2023/02/15 01:07:20;;;;;;;125.30;69.40;;;;;;;1.63;79.88;98736.85;109037;1250;96004;-76
2023/02/15 01:09:48;;;;;;;132.90;73.10;;;;;;;1.63;79.86;98736.63;108988;1251;103526;-77
2023/02/15 01:12:16;;;;;;;121.50;66.90;;;;;;;1.61;79.77;98738.95;108828;1251;101310;-74
2023/02/15 01:14:45;;;;;;;129.20;70.30;;;;;;;1.60;79.78;98740.27;108857;1251;99930;-77
2023/02/15 01:17:13;;;;;;;126.60;69.60;;;;;;;1.62;79.83;98735.64;108833;1251;95529;-74
2023/02/15 01:19:41;;;;;;;128.40;70.20;;;;;;;1.65;79.78;98738.64;109041;1251;95985;-74
2023/02/15 01:22:09;;;;;;;129.10;69.20;;;;;;;1.66;79.85;98735.89;109074;1250;103555;-74
2023/02/15 01:24:37;;;;;;;113.40;65.20;;;;;;;1.65;79.87;98733.11;108728;1251;101197;-76
2023/02/15 01:27:05;;;;;;;120.20;67.90;;;;;;;1.62;79.87;98732.11;108682;1251;100117;-74
2023/02/15 01:29:34;;;;;;;128.00;70.70;;;;;;;1.59;79.89;98723.88;108925;1250;95855;-77
2023/02/15 01:32:02;;;;;;;129.40;69.80;;;;;;;1.58;79.98;98721.46;108990;1251;96008;-75
2023/02/15 01:34:31;;;;;;;123.40;69.30;;;;;;;1.57;79.89;98719.02;108972;1250;103747;-74
2023/02/15 01:36:59;;;;;;;126.60;69.90;;;;;;;1.57;80.07;98716.52;109011;1249;101346;-77
2023/02/15 01:39:27;;;;;;;125.30;69.50;;;;;;;1.58;80.01;98712.72;108973;1250;99299;-78
2023/02/15 01:41:55;;;;;;;137.90;71.60;;;;;;;1.59;79.98;98708.59;109020;1251;95519;-74
2023/02/15 01:44:45;;;;;;;121.70;67.30;;;;;;;1.60;80.13;98709.58;108997;1250;96030;-76
2023/02/15 01:47:38;;;;;;;129.20;70.40;;;;;;;1.60;79.99;98705.64;109008;1249;103576;-74
2023/02/15 01:50:06;;;;;;;132.80;72.60;;;;;;;1.59;79.95;98699.88;108320;1260;101340;-74
2023/02/15 01:52:38;;;;;;;119.90;67.50;;;;;;;1.59;79.96;98693.88;108251;1259;100121;-74
2023/02/15 01:55:08;;;;;;;122.30;66.60;;;;;;;1.59;80.02;98691.58;108315;1258;95562;-76
2023/02/15 01:57:37;;;;;;;117.00;66.40;;;;;;;1.60;80.02;98689.57;108118;1258;97144;-76
2023/02/15 02:00:27;;;;;;;118.40;66.00;;;;;;;1.61;80.02;98686.81;108255;1259;103505;-75
2023/02/15 02:02:58;;;;;;;109.80;60.60;;;;;;;1.61;80.05;98688.00;108258;1260;108245;-75
2023/02/15 02:05:26;;;;;;;97.00;56.30;;;;;;;1.61;79.97;98688.17;108208;1260;100037;-75
2023/02/15 02:07:59;;;;;;;99.10;56.50;;;;;;;1.62;79.90;98686.30;108246;1260;95636;-78
2023/02/15 02:10:29;;;;;;;90.60;53.00;;;;;;;1.62;79.93;98683.83;108257;1259;96159;-77
2023/02/15 02:13:03;;;;;;;92.60;53.40;;;;;;;1.62;79.92;98680.48;108234;1260;104098;-75
2023/02/15 02:16:03;;;;;;;94.00;54.80;;;;;;;1.63;79.95;98679.67;108025;1259;100150;-74
2023/02/15 02:19:06;;;;;;;89.50;47.90;;;;;;;1.62;79.94;98677.98;108229;1258;98514;-74
2023/02/15 02:21:53;;;;;;;63.60;38.90;;;;;;;1.62;79.87;98674.66;107917;1264;95655;-75
2023/02/15 02:24:59;;;;;;;76.50;41.50;;;;;;;1.62;79.86;98677.81;107948;1263;96655;-76
2023/02/15 02:27:33;;;;;;;65.20;37.70;;;;;;;1.61;79.74;98671.70;107544;1266;103662;-77
2023/02/15 02:30:32;;;;;;;30.50;21.20;;;;;;;1.60;79.89;98669.47;107879;1266;110106;-75
2023/02/15 02:33:28;;;;;;;29.90;19.60;;;;;;;1.62;79.62;98665.90;107846;1265;99975;-77
2023/02/15 02:36:20;;;;;;;37.60;23.80;;;;;;;1.65;79.57;98663.34;107841;1265;95739;-78
2023/02/15 02:38:57;;;;;;;35.20;22.60;;;;;;;1.66;79.50;98660.30;107671;1265;95706;-74
2023/02/15 02:41:35;;;;;;;27.50;19.60;;;;;;;1.67;79.43;98658.11;107816;1267;104104;-77
2023/02/15 02:44:11;;;;;;;34.60;21.50;;;;;;;1.66;79.40;98656.38;107811;1266;101799;-74
2023/02/15 02:46:56;;;;;;;26.60;17.60;;;;;;;1.64;79.40;98656.55;107811;1266;100102;-77
2023/02/15 02:49:32;;;;;;;23.60;16.20;;;;;;;1.65;79.21;98659.45;107832;1267;95859;-75
2023/02/15 02:52:02;;;;;;;24.30;17.70;;;;;;;1.67;79.21;98661.62;107821;1266;96152;-76
2023/02/15 02:54:33;;;;;;;25.20;17.40;;;;;;;1.68;79.14;98659.59;107832;1266;103660;-76
2023/02/15 02:57:04;;;;;;;25.40;17.50;;;;;;;1.71;79.13;98661.98;107842;1267;101379;-76
2023/02/15 02:59:37;;;;;;;29.00;18.10;;;;;;;1.74;79.06;98665.44;108066;1259;99985;-74
2023/02/15 03:02:12;;;;;;;29.00;19.80;;;;;;;1.77;78.98;98665.73;108242;1258;95639;-74
2023/02/15 03:04:47;;;;;;;30.20;20.30;;;;;;;1.79;78.92;98666.65;108659;1251;95987;-74
2023/02/15 03:07:22;;;;;;;33.10;20.90;;;;;;;1.79;78.94;98665.98;108746;1250;103272;-74
2023/02/15 03:09:54;;;;;;;26.60;17.40;;;;;;;1.78;78.88;98664.42;109024;1250;100982;-74
2023/02/15 03:12:28;;;;;;;27.00;18.10;;;;;;;1.79;78.80;98664.38;108881;1250;100083;-76
2023/02/15 03:15:11;;;;;;;28.60;17.90;;;;;;;1.77;78.65;98664.17;108946;1249;95567;-74
2023/02/15 03:17:44;;;;;;;32.10;19.30;;;;;;;1.74;78.72;98664.39;109065;1250;95696;-76
2023/02/15 03:20:37;;;;;;;29.40;19.60;;;;;;;1.75;78.60;98665.39;109003;1250;103638;-74
2023/02/15 03:23:14;;;;;;;27.60;19.10;;;;;;;1.74;78.59;98665.44;109017;1249;101281;-74
2023/02/15 03:25:46;;;;;;;31.90;21.50;;;;;;;1.71;78.33;98667.48;108988;1250;100195;-75
2023/02/15 03:28:20;;;;;;;31.60;20.40;;;;;;;1.70;78.36;98665.81;108980;1249;95884;-74
2023/02/15 03:30:54;;;;;;;31.50;19.40;;;;;;;1.69;78.37;98666.29;108826;1251;95986;-74
2023/02/15 03:33:25;;;;;;;29.40;19.00;;;;;;;1.67;78.26;98665.23;108712;1250;103442;-75
2023/02/15 03:36:30;;;;;;;31.10;20.80;;;;;;;1.63;78.26;98666.56;109039;1250;101338;-74
2023/02/15 03:38:59;;;;;;;32.10;20.70;;;;;;;1.59;78.42;98666.03;108957;1250;99484;-74
2023/02/15 03:41:35;;;;;;;36.30;22.30;;;;;;;1.56;78.45;98664.70;108975;1250;95757;-74
2023/02/15 03:44:13;;;;;;;35.90;23.00;;;;;;;1.54;78.46;98664.29;109028;1250;95964;-74
2023/02/15 03:46:54;;;;;;;41.90;24.10;;;;;;;1.51;78.33;98655.11;109002;1250;103837;-75
2023/02/15 03:49:34;;;;;;;36.10;22.90;;;;;;;1.49;78.26;98652.68;109039;1250;111350;-74
2023/02/15 03:52:05;;;;;;;40.10;25.20;;;;;;;1.47;78.31;98655.96;108971;1250;99840;-74
2023/02/15 03:54:45;;;;;;;48.50;28.60;;;;;;;1.48;78.52;98652.89;108981;1250;95578;-77
2023/02/15 04:03:13;;;;;;;39.30;25.30;;;;;;;1.48;78.47;98653.11;108887;1250;101593;-74
2023/02/15 04:05:44;;;;;;;40.90;25.30;;;;;;;1.48;78.33;98651.15;108970;1250;100123;-77
2023/02/15 04:08:13;;;;;;;39.00;25.10;;;;;;;1.47;78.21;98651.39;108982;1250;95590;-75
2023/02/15 04:10:54;;;;;;;39.20;25.40;;;;;;;1.45;78.27;98652.22;108662;1251;96214;-75
2023/02/15 04:13:25;;;;;;;41.70;26.00;;;;;;;1.44;78.38;98648.41;108851;1251;103439;-77
2023/02/15 04:16:04;;;;;;;40.50;25.30;;;;;;;1.43;78.23;98641.08;108907;1251;101458;-75
2023/02/15 04:26:53;;;;;;;38.10;23.20;;;;;;;1.46;78.22;98645.05;108881;1251;103517;-77
2023/02/15 04:29:23;;;;;;;32.60;21.60;;;;;;;1.45;78.12;98638.75;108848;1251;100774;-77
2023/02/15 04:31:53;;;;;;;33.30;22.50;;;;;;;1.45;78.16;98642.88;108825;1251;98645;-76
2023/02/15 04:34:22;;;;;;;33.50;21.80;;;;;;;1.43;78.14;98643.57;108807;1251;95537;-77
2023/02/15 04:36:50;;;;;;;35.00;23.70;;;;;;;1.40;78.04;98644.16;108937;1251;96049;-74
2023/02/15 04:39:19;;;;;;;37.10;23.60;;;;;;;1.37;77.94;98645.63;108692;1253;104873;-74
2023/02/15 04:41:48;;;;;;;36.80;23.30;;;;;;;1.34;77.97;98642.52;108641;1253;101349;-74
2023/02/15 04:44:16;;;;;;;39.40;23.80;;;;;;;1.32;78.05;98640.33;108770;1251;98941;-75
2023/02/15 04:46:44;;;;;;;40.10;24.40;;;;;;;1.32;78.05;98642.52;108762;1251;95540;-75
2023/02/15 04:49:12;;;;;;;41.50;24.30;;;;;;;1.32;77.89;98640.77;108771;1252;96045;-78
2023/02/15 04:51:40;;;;;;;39.50;24.00;;;;;;;1.31;77.92;98642.56;108850;1251;103730;-74
2023/02/15 04:54:09;;;;;;;38.90;21.80;;;;;;;1.29;77.98;98646.45;108828;1251;101301;-74
2023/02/15 04:56:38;;;;;;;39.30;22.30;;;;;;;1.25;77.97;98644.83;108799;1254;100040;-74
2023/02/15 04:59:06;;;;;;;32.90;21.20;;;;;;;1.21;77.96;98645.90;108760;1251;95588;-77
2023/02/15 05:01:34;;;;;;;32.00;21.60;;;;;;;1.16;78.04;98651.06;108798;1252;96116;-77
2023/02/15 05:04:03;;;;;;;36.80;25.00;;;;;;;1.15;78.16;98645.13;108814;1253;103267;-75
2023/02/15 05:06:31;;;;;;;45.00;27.60;;;;;;;1.14;78.09;98646.10;108821;1251;100532;-74
2023/02/15 05:09:00;;;;;;;43.60;26.70;;;;;;;1.13;78.06;98646.15;108910;1250;100048;-75
2023/02/15 05:11:28;;;;;;;40.90;24.30;;;;;;;1.11;78.12;98643.64;109013;1249;95563;-75
2023/02/15 05:13:57;;;;;;;33.70;21.20;;;;;;;1.09;78.09;98648.90;109078;1249;97131;-76
2023/02/15 05:16:27;;;;;;;38.50;21.80;;;;;;;1.11;78.23;98648.80;109005;1250;103659;-74
2023/02/15 05:18:55;;;;;;;36.10;23.00;;;;;;;1.12;78.19;98653.49;108726;1249;101350;-74
2023/02/15 05:21:23;;;;;;;31.30;20.60;;;;;;;1.11;78.13;98657.34;108728;1250;99250;-75
2023/02/15 05:23:52;;;;;;;32.40;20.30;;;;;;;1.07;78.15;98660.98;108843;1250;95568;-74
2023/02/15 05:29:11;;;;;;;29.10;20.10;;;;;;;1.05;78.23;98662.00;108754;1250;103690;-75
2023/02/15 05:31:39;;;;;;;35.20;22.20;;;;;;;1.05;78.32;98659.55;108738;1250;102613;-77
2023/02/15 05:34:07;;;;;;;43.60;25.20;;;;;;;1.04;78.32;98659.27;108978;1249;99595;-76
2023/02/15 05:36:35;;;;;;;43.70;25.50;;;;;;;1.03;78.33;98659.89;108962;1250;95600;-74
2023/02/15 05:39:05;;;;;;;42.90;27.20;;;;;;;1.01;78.43;98658.65;109026;1250;96486;-73
2023/02/15 05:41:33;;;;;;;48.60;28.10;;;;;;;1.00;78.42;98658.52;109020;1250;102567;-74
2023/02/15 05:44:02;;;;;;;40.70;26.20;;;;;;;1.01;78.33;98658.96;108966;1250;101359;-74
2023/02/15 05:46:30;;;;;;;44.10;27.20;;;;;;;1.00;78.36;98659.89;108737;1250;100172;-74
2023/02/15 05:48:58;;;;;;;40.60;26.40;;;;;;;1.01;78.35;98661.10;109002;1249;95567;-76
2023/02/15 05:51:26;;;;;;;43.60;25.30;;;;;;;1.00;78.37;98664.73;109011;1250;96024;-74
2023/02/15 05:53:54;;;;;;;40.40;23.50;;;;;;;0.99;78.32;98663.02;109039;1250;103448;-74
2023/02/15 05:56:22;;;;;;;41.90;25.40;;;;;;;1.00;78.24;98669.72;109022;1250;101350;-74
2023/02/15 05:58:53;;;;;;;36.00;24.00;;;;;;;1.00;78.35;98665.95;108957;1249;99924;-76
2023/02/15 06:01:22;;;;;;;36.10;22.40;;;;;;;1.00;78.21;98668.78;108972;1249;95569;-74
2023/02/15 06:03:51;;;;;;;36.70;22.80;;;;;;;1.00;78.24;98674.08;109016;1249;96439;-76
2023/02/15 06:06:19;;;;;;;33.30;19.70;;;;;;;1.02;78.26;98677.13;108843;1250;103012;-78
2023/02/15 06:08:47;;;;;;;29.30;18.00;;;;;;;1.01;78.36;98672.96;108840;1250;101328;-74
2023/02/15 06:11:16;;;;;;;27.70;17.90;;;;;;;1.02;78.31;98673.79;109005;1249;98494;-74
2023/02/15 06:13:44;;;;;;;23.80;16.60;;;;;;;1.04;78.40;98676.29;108973;1250;95540;-74
2023/02/15 06:16:12;;;;;;;25.70;17.30;;;;;;;1.05;78.59;98676.02;108998;1249;95999;-75
2023/02/15 06:18:40;;;;;;;28.60;18.10;;;;;;;1.05;78.49;98678.49;108689;1254;103112;-75
2023/02/15 06:21:08;;;;;;;29.50;18.60;;;;;;;1.05;78.42;98679.22;108993;1249;101027;-77
2023/02/15 06:23:36;;;;;;;26.20;17.60;;;;;;;1.06;78.40;98678.64;108657;1251;99545;-75
2023/02/15 06:26:04;;;;;;;30.40;19.20;;;;;;;1.06;78.61;98680.92;108943;1250;95593;-74
2023/02/15 06:28:33;;;;;;;31.90;19.40;;;;;;;1.06;78.58;98680.91;108999;1249;96016;-77
2023/02/15 06:31:01;;;;;;;37.10;21.10;;;;;;;1.05;78.54;98682.55;109010;1250;103157;-77
2023/02/15 06:33:30;;;;;;;33.60;21.10;;;;;;;1.04;78.43;98681.81;109020;1250;101265;-74
2023/02/15 06:35:58;;;;;;;35.90;21.90;;;;;;;1.02;78.46;98681.91;108968;1250;99876;-74
2023/02/15 06:38:26;;;;;;;33.80;21.60;;;;;;;1.00;78.56;98681.69;108971;1249;95796;-74
2023/02/15 06:40:54;;;;;;;39.50;22.80;;;;;;;0.97;78.45;98682.38;109014;1249;96061;-74
2023/02/15 06:43:22;;;;;;;35.90;21.50;;;;;;;0.96;78.60;98675.15;108723;1249;102793;-74
2023/02/15 06:45:51;;;;;;;41.30;23.60;;;;;;;0.93;78.39;98680.02;109014;1250;101424;-74
2023/02/15 06:48:19;;;;;;;40.10;23.80;;;;;;;0.92;78.48;98676.56;108993;1249;99996;-74
2023/02/15 06:50:47;;;;;;;37.20;23.80;;;;;;;0.91;78.46;98673.60;109044;1250;95580;-77
2023/02/15 06:53:15;;;;;;;42.90;25.00;;;;;;;0.90;78.40;98670.52;109025;1250;96542;-74
2023/02/15 06:55:43;;;;;;;40.40;24.50;;;;;;;0.90;78.56;98667.33;108735;1249;103692;-75
2023/02/15 06:58:11;;;;;;;42.20;24.40;;;;;;;0.90;78.52;98669.07;108732;1250;100602;-76
2023/02/15 07:00:39;;;;;;;41.40;24.60;;;;;;;0.90;78.39;98670.49;108957;1250;99261;-77
2023/02/15 07:03:08;;;;;;;39.20;23.40;;;;;;;0.90;78.45;98666.22;109024;1249;95988;-74
2023/02/15 07:05:36;;;;;;;42.40;25.50;;;;;;;0.91;78.45;98665.81;108949;1250;96023;-76
2023/02/15 07:08:04;;;;;;;41.40;23.10;;;;;;;0.91;78.30;98668.30;108999;1250;102697;-77
2023/02/15 07:10:32;;;;;;;40.30;23.50;;;;;;;0.92;78.32;98673.14;108980;1250;101321;-77
2023/02/15 07:13:00;;;;;;;41.10;24.20;;;;;;;0.95;78.27;98673.65;108957;1249;100194;-74
2023/02/15 07:15:29;;;;;;;45.40;25.90;;;;;;;0.98;78.18;98676.05;108992;1249;95542;-78
2023/02/15 07:17:59;;;;;;;45.10;25.70;;;;;;;1.01;78.47;98671.88;108977;1250;95986;-74
2023/02/15 07:20:27;;;;;;;48.80;27.70;;;;;;;1.04;78.22;98668.82;108952;1250;103467;-74
2023/02/15 07:22:55;;;;;;;52.60;29.40;;;;;;;1.06;78.17;98669.23;108677;1251;102403;-74
2023/02/15 07:25:23;;;;;;;45.30;27.30;;;;;;;1.07;78.16;98662.39;108960;1250;99847;-77
2023/02/15 07:28:01;;;;;;;39.90;23.70;;;;;;;1.09;78.08;98660.65;108921;1250;95847;-74
2023/02/15 07:30:29;;;;;;;44.00;25.40;;;;;;;1.09;78.09;98656.94;108986;1250;96036;-74
2023/02/15 07:35:50;;;;;;;39.00;24.10;;;;;;;1.12;78.08;98652.68;108954;1250;101368;-74
2023/02/15 07:38:19;;;;;;;39.10;23.60;;;;;;;1.14;78.07;98654.64;108419;1251;99383;-74
2023/02/15 07:40:48;;;;;;;49.80;28.50;;;;;;;1.15;77.92;98652.79;108962;1249;95575;-76
2023/02/15 07:43:16;;;;;;;32.50;19.30;;;;;;;1.17;77.94;98651.36;108997;1249;95993;-75
2023/02/15 07:45:44;;;;;;;32.80;19.60;;;;;;;1.19;77.73;98651.00;108992;1250;103219;-75
2023/02/15 07:48:13;;;;;;;33.20;20.60;;;;;;;1.23;77.87;98650.55;108974;1249;109601;-74
2023/02/15 07:50:41;;;;;;;32.60;18.80;;;;;;;1.28;77.97;98651.15;108964;1250;100074;-74
2023/02/15 07:53:09;;;;;;;36.60;21.00;;;;;;;1.34;77.93;98650.65;108963;1250;95818;-75
2023/02/15 07:55:38;;;;;;;36.00;22.80;;;;;;;1.38;77.84;98650.52;109008;1249;95995;-78
2023/02/15 07:58:06;;;;;;;35.90;21.90;;;;;;;1.41;77.72;98648.64;108815;1250;223792;-77
2023/02/15 08:00:56;;;;;;;29.90;18.10;;;;;;;1.50;77.68;98643.18;108721;1249;102365;-74
2023/02/15 08:03:26;;;;;;;31.10;17.90;;;;;;;1.62;77.55;98639.70;108971;1250;99783;-74
2023/02/15 08:05:59;;;;;;;26.90;17.20;;;;;;;1.75;77.45;98637.23;108631;1256;96570;-74
2023/02/15 08:08:31;;;;;;;26.30;16.70;;;;;;;1.89;77.46;98638.33;108807;1251;96003;-74
2023/02/15 08:14:02;;;;;;;25.10;15.80;;;;;;;2.20;77.09;98630.52;108951;1250;101523;-74
2023/02/15 08:16:40;;;;;;;25.10;14.70;;;;;;;2.37;76.74;98627.38;108916;1251;99572;-77
2023/02/15 08:19:13;;;;;;;24.60;15.80;;;;;;;2.51;76.51;98623.09;108866;1251;95579;-74
2023/02/15 08:21:53;;;;;;;23.70;14.70;;;;;;;2.63;76.40;98624.58;108875;1251;96231;-76
2023/02/15 08:24:24;;;;;;;21.40;13.90;;;;;;;2.75;76.16;98620.66;108958;1250;103568;-75
2023/02/15 08:26:53;;;;;;;24.50;15.30;;;;;;;2.89;76.27;98617.13;108918;1249;101019;-74
2023/02/15 08:29:24;;;;;;;21.80;14.50;;;;;;;3.04;76.01;98617.60;108650;1251;99960;-74
2023/02/15 08:31:58;;;;;;;23.20;14.60;;;;;;;3.19;75.73;98616.80;108891;1251;95564;-74
2023/02/15 08:34:26;;;;;;;23.10;15.40;;;;;;;3.34;75.69;98611.20;108842;1251;96073;-74
2023/02/15 08:36:55;;;;;;;24.60;15.40;;;;;;;3.51;75.41;98607.86;108873;1251;111944;-74
2023/02/15 08:39:23;;;;;;;24.60;15.30;;;;;;;3.61;75.25;98607.73;109000;1250;101356;-74
2023/02/15 08:41:51;;;;;;;23.10;14.70;;;;;;;3.75;75.04;98607.69;108906;1249;99655;-75
2023/02/15 08:44:20;;;;;;;30.00;15.80;;;;;;;3.85;74.83;98601.73;108621;1251;95674;-79
2023/02/15 08:46:49;;;;;;;23.70;15.00;;;;;;;4.00;74.70;98600.35;108902;1251;96049;-76
2023/02/15 08:49:20;;;;;;;26.70;16.60;;;;;;;4.19;74.70;98599.31;108986;1251;102852;-75
2023/02/15 08:51:50;;;;;;;26.50;16.30;;;;;;;4.41;74.29;98595.11;108954;1250;101370;-75
2023/02/15 08:54:21;;;;;;;24.40;15.90;;;;;;;4.62;74.01;98592.52;108585;1251;99855;-75
2023/02/15 08:56:49;;;;;;;27.80;17.60;;;;;;;4.86;73.72;98589.77;108901;1251;95640;-78
2023/02/15 08:59:21;;;;;;;26.50;16.30;;;;;;;5.08;73.23;98586.02;109010;1251;96082;-75
2023/02/15 09:01:51;;;;;;;26.60;16.40;;;;;;;5.29;72.91;98579.48;108893;1251;103527;-76
2023/02/15 09:04:20;;;;;;;25.40;16.30;;;;;;;5.52;72.54;98582.08;108667;1250;100683;-75
2023/02/15 09:06:50;;;;;;;23.00;14.80;;;;;;;5.72;72.21;98579.48;108919;1249;99883;-76
2023/02/15 09:09:19;;;;;;;24.30;15.40;;;;;;;5.96;71.65;98578.19;108942;1250;95758;-77
2023/02/15 09:11:50;;;;;;;23.90;15.90;;;;;;;6.17;70.82;98574.27;108977;1251;96038;-74
2023/02/15 09:14:23;;;;;;;26.80;15.60;;;;;;;6.39;70.70;98572.56;109044;1249;103903;-74
2023/02/15 09:16:54;;;;;;;26.10;16.80;;;;;;;6.66;70.10;98566.02;109004;1250;100984;-74
2023/02/15 09:19:23;;;;;;;23.20;15.20;;;;;;;6.92;69.89;98560.02;108962;1250;100065;-74
2023/02/15 09:21:52;;;;;;;29.00;16.80;;;;;;;7.17;69.60;98560.41;108974;1250;95891;-75
2023/02/15 09:24:20;;;;;;;26.70;17.90;;;;;;;7.42;68.96;98558.09;108950;1250;96435;-75
2023/02/15 09:26:49;;;;;;;29.70;17.80;;;;;;;7.64;68.41;98556.36;108734;1250;103499;-74
2023/02/15 09:29:19;;;;;;;25.90;17.60;;;;;;;7.89;68.05;98550.55;108716;1250;100266;-75
2023/02/15 09:31:49;;;;;;;26.40;16.50;;;;;;;8.13;67.32;98548.44;108945;1250;100208;-75
2023/02/15 09:34:20;;;;;;;25.10;16.50;;;;;;;8.36;67.04;98545.19;108977;1251;95561;-76
2023/02/15 09:36:49;;;;;;;24.90;16.20;;;;;;;8.58;65.90;98544.94;108963;1249;96409;-75
2023/02/15 09:39:27;;;;;;;20.80;14.10;;;;;;;8.71;65.08;98542.17;108986;1251;103547;-75
2023/02/15 09:42:25;;;;;;;23.10;15.80;;;;;;;8.82;64.21;98538.78;109034;1250;101165;-75
2023/02/15 09:45:03;;;;;;;23.40;15.70;;;;;;;8.94;63.46;98532.77;108276;1256;108547;-75
2023/02/15 09:47:59;;;;;;;26.90;15.70;;;;;;;9.07;63.53;98529.85;108296;1256;95797;-75
2023/02/15 09:51:04;;;;;;;25.30;16.30;;;;;;;9.28;63.21;98527.37;108329;1257;96071;-75
2023/02/15 09:53:33;;;;;;;27.10;16.40;;;;;;;9.41;61.86;98531.40;108237;1256;102770;-75
2023/02/15 09:56:27;;;;;;;28.70;18.90;;;;;;;9.40;60.82;98528.48;108355;1256;101321;-77
2023/02/15 09:59:19;;;;;;;23.80;15.20;;;;;;;9.29;60.52;98526.05;108322;1256;100055;-76
2023/02/15 10:02:29;;;;;;;26.00;15.70;;;;;;;9.44;60.84;98524.15;108285;1256;95935;-74
2023/02/15 10:05:34;;;;;;;25.40;16.60;;;;;;;9.63;60.29;98518.95;108353;1257;96140;-76
2023/02/15 10:08:16;;;;;;;24.30;16.20;;;;;;;9.78;60.29;98516.89;108311;1256;103565;-75
2023/02/15 10:11:38;;;;;;;23.30;15.40;;;;;;;9.94;60.09;98517.11;108362;1256;100783;-75
2023/02/15 10:14:04;;;;;;;26.40;16.30;;;;;;;10.18;60.13;98512.49;108354;1256;99727;-77
2023/02/15 10:16:39;;;;;;;24.70;15.90;;;;;;;10.21;59.07;98504.23;108362;1257;96040;-75
2023/02/15 10:19:19;;;;;;;23.10;15.60;;;;;;;10.14;58.58;98501.48;108387;1256;95949;-77
2023/02/15 10:22:05;;;;;;;24.70;15.80;;;;;;;10.25;58.87;98495.20;108604;1252;103663;-76
2023/02/15 10:24:53;;;;;;;23.80;15.80;;;;;;;10.47;59.03;98491.98;108624;1251;100468;-75
2023/02/15 10:27:22;;;;;;;23.50;15.00;;;;;;;10.79;58.65;98486.97;108622;1251;98624;-75
2023/02/15 10:29:57;;;;;;;23.10;14.70;;;;;;;11.06;57.91;98483.86;108875;1251;95594;-78
2023/02/15 10:32:29;;;;;;;21.10;14.60;;;;;;;11.12;57.15;98481.93;108930;1251;95907;-75
2023/02/15 10:35:02;;;;;;;21.70;14.80;;;;;;;11.22;56.49;98477.96;108903;1250;103705;-75
2023/02/15 10:37:53;;;;;;;23.10;14.60;;;;;;;11.27;56.43;98476.36;108899;1250;101686;-77
2023/02/15 10:40:43;;;;;;;21.60;14.10;;;;;;;11.45;56.35;98473.41;108844;1251;99949;-76
2023/02/15 10:43:38;;;;;;;22.40;14.30;;;;;;;11.62;55.88;98468.73;108862;1251;95785;-75
2023/02/15 10:46:31;;;;;;;21.70;14.00;;;;;;;11.83;55.21;98464.03;108654;1251;95893;-75
2023/02/15 10:49:08;;;;;;;;;;;;;;;12.13;54.76;98462.84;108902;1253;103474;-75
2023/02/15 10:51:58;;;;;;;22.10;13.60;;;;;;;12.28;53.60;98455.31;108916;1251;101503;-75
2023/02/15 10:54:55;;;;;;;18.30;13.20;;;;;;;12.45;53.10;98454.34;108871;1251;99959;-76
2023/02/15 10:57:47;;;;;;;20.20;13.50;;;;;;;12.65;52.86;98456.02;108236;1259;95631;-75
2023/02/15 11:00:28;;;;;;;19.40;12.90;;;;;;;12.97;53.15;98451.80;108280;1259;96521;-78
2023/02/15 11:03:15;;;;;;;22.30;13.50;;;;;;;13.35;52.84;98448.24;108280;1259;103770;-78
2023/02/15 11:06:15;;;;;;;21.50;13.10;;;;;;;13.70;51.96;98447.75;108288;1259;101398;-74
2023/02/15 11:08:57;;;;;;;17.40;12.10;;;;;;;13.91;50.64;98445.44;108225;1259;100216;-75
2023/02/15 11:11:30;;;;;;;;;;;;;;;13.93;50.03;98437.52;108231;1259;95576;-75
2023/02/15 11:14:07;;;;;;;18.40;12.10;;;;;;;14.03;50.03;98431.13;108215;1259;95739;-75
2023/02/15 11:16:40;;;;;;;16.90;11.90;;;;;;;14.33;50.49;98423.77;108240;1259;103260;-75
2023/02/15 11:19:46;;;;;;;17.00;10.90;;;;;;;14.59;49.67;98421.00;108117;1259;101287;-75
2023/02/15 11:22:14;;;;;;;19.10;12.20;;;;;;;14.80;49.27;98413.25;107861;1265;98573;-77
2023/02/15 11:24:45;;;;;;;19.00;12.30;;;;;;;15.00;49.37;98411.80;107875;1265;95696;-78
2023/02/15 11:27:19;;;;;;;17.60;12.30;;;;;;;15.22;48.85;98409.62;107861;1265;96581;-78
2023/02/15 11:30:00;;;;;;;17.40;12.50;;;;;;;15.31;47.86;98408.21;107909;1265;103420;-78
2023/02/15 11:32:49;;;;;;;17.90;12.70;;;;;;;15.31;47.94;98404.64;107708;1266;101378;-77
2023/02/15 11:35:39;;;;;;;17.80;11.10;;;;;;;15.40;47.21;98403.79;108041;1259;99076;-80
2023/02/15 11:38:30;;;;;;;14.40;11.30;;;;;;;15.30;47.11;98399.80;108199;1259;95697;-78
2023/02/15 11:41:10;;;;;;;13.10;10.70;;;;;;;15.34;46.65;98395.87;108221;1260;95915;-78
2023/02/15 11:43:48;;;;;;;16.20;10.50;;;;;;;15.26;46.20;98393.83;107988;1259;103621;-75
2023/02/15 11:46:16;;;;;;;13.50;9.90;;;;;;;15.25;46.48;98384.38;108231;1259;101217;-76
2023/02/15 11:48:44;;;;;;;16.90;11.00;;;;;;;15.42;47.22;98380.55;108134;1261;99931;-75
2023/02/15 11:51:18;;;;;;;15.10;11.10;;;;;;;15.55;47.17;98382.62;108161;1259;95704;-76
2023/02/15 11:53:47;;;;;;;16.00;11.00;;;;;;;15.76;46.41;98374.20;108222;1259;95679;-76
2023/02/15 11:56:22;;;;;;;13.40;10.50;;;;;;;15.91;46.47;98370.09;108200;1251;103679;-75
2023/02/15 11:59:04;;;;;;;15.80;10.50;;;;;;;16.08;45.90;98370.87;108861;1250;101325;-77
2023/02/15 12:01:44;;;;;;;14.20;10.90;;;;;;;16.20;45.41;98370.17;108734;1251;99875;-76
2023/02/15 12:04:25;;;;;;;16.10;11.30;;;;;;;16.29;45.06;98369.73;108790;1253;95590;-75